sensor_id;sensor_type;location;lat;lon;timestamp;temperature;humidity
6822;DHT22;3449;48.728;8.968;2023-01-24T00:00:08;0.70;99.90
6822;DHT22;3449;48.728;8.968;2023-01-24T00:02:35;0.70;99.90
6822;DHT22;3449;48.728;8.968;2023-01-24T00:05:02;0.70;99.90
6822;DHT22;3449;48.728;8.968;2023-01-24T00:07:29;0.70;99.90
6822;DHT22;3449;48.728;8.968;2023-01-24T00:09:56;0.70;99.90
6822;DHT22;3449;48.728;8.968;2023-01-24T00:12:22;0.70;99.90
6822;DHT22;3449;48.728;8.968;2023-01-24T00:14:50;0.70;99.90
6822;DHT22;3449;48.728;8.968;2023-01-24T00:17:18;0.70;99.90
6822;DHT22;3449;48.728;8.968;2023-01-24T00:19:46;0.80;99.90
6822;DHT22;3449;48.728;8.968;2023-01-24T00:22:13;0.70;99.90
6822;DHT22;3449;48.728;8.968;2023-01-24T00:24:39;0.70;99.90
6822;DHT22;3449;48.728;8.968;2023-01-24T00:27:06;0.70;99.90
6822;DHT22;3449;48.728;8.968;2023-01-24T00:29:33;0.70;99.90
6822;DHT22;3449;48.728;8.968;2023-01-24T00:32:01;0.70;99.90
6822;DHT22;3449;48.728;8.968;2023-01-24T00:34:28;0.70;99.90
6822;DHT22;3449;48.728;8.968;2023-01-24T00:36:55;0.70;99.90
6822;DHT22;3449;48.728;8.968;2023-01-24T00:39:22;0.70;99.90
6822;DHT22;3449;48.728;8.968;2023-01-24T00:41:49;0.70;99.90
6822;DHT22;3449;48.728;8.968;2023-01-24T00:44:16;0.70;99.90
6822;DHT22;3449;48.728;8.968;2023-01-24T00:46:42;0.80;99.90
6822;DHT22;3449;48.728;8.968;2023-01-24T00:49:11;0.70;99.90
6822;DHT22;3449;48.728;8.968;2023-01-24T00:51:37;0.70;99.90
6822;DHT22;3449;48.728;8.968;2023-01-24T00:54:04;0.70;99.90
6822;DHT22;3449;48.728;8.968;2023-01-24T00:56:31;0.70;99.90
6822;DHT22;3449;48.728;8.968;2023-01-24T00:58:58;0.70;99.90
6822;DHT22;3449;48.728;8.968;2023-01-24T01:01:25;0.70;99.90
6822;DHT22;3449;48.728;8.968;2023-01-24T01:03:54;0.70;99.90
6822;DHT22;3449;48.728;8.968;2023-01-24T01:06:24;0.70;99.90
6822;DHT22;3449;48.728;8.968;2023-01-24T01:08:51;0.70;99.90
6822;DHT22;3449;48.728;8.968;2023-01-24T01:11:18;0.70;99.90
6822;DHT22;3449;48.728;8.968;2023-01-24T01:13:46;0.80;99.90
6822;DHT22;3449;48.728;8.968;2023-01-24T01:16:15;0.70;99.90
6822;DHT22;3449;48.728;8.968;2023-01-24T01:18:43;0.90;99.90
6822;DHT22;3449;48.728;8.968;2023-01-24T01:21:12;0.70;99.90
6822;DHT22;3449;48.728;8.968;2023-01-24T01:23:41;0.80;99.90
6822;DHT22;3449;48.728;8.968;2023-01-24T01:26:16;0.80;99.90
6822;DHT22;3449;48.728;8.968;2023-01-24T01:28:44;0.70;99.90
6822;DHT22;3449;48.728;8.968;2023-01-24T01:31:11;0.80;99.90
6822;DHT22;3449;48.728;8.968;2023-01-24T01:33:38;0.80;99.90
6822;DHT22;3449;48.728;8.968;2023-01-24T01:36:05;0.80;99.90
6822;DHT22;3449;48.728;8.968;2023-01-24T01:38:32;0.80;99.90
6822;DHT22;3449;48.728;8.968;2023-01-24T01:41:00;0.80;99.90
6822;DHT22;3449;48.728;8.968;2023-01-24T01:43:29;0.80;99.90
6822;DHT22;3449;48.728;8.968;2023-01-24T01:45:58;0.80;99.90
6822;DHT22;3449;48.728;8.968;2023-01-24T01:48:33;0.80;99.90
6822;DHT22;3449;48.728;8.968;2023-01-24T01:51:04;0.90;99.90
6822;DHT22;3449;48.728;8.968;2023-01-24T01:53:35;0.80;99.90
6822;DHT22;3449;48.728;8.968;2023-01-24T01:56:09;0.80;99.90
6822;DHT22;3449;48.728;8.968;2023-01-24T01:58:38;0.80;99.90
6822;DHT22;3449;48.728;8.968;2023-01-24T02:01:06;0.80;99.90
6822;DHT22;3449;48.728;8.968;2023-01-24T02:03:36;0.80;99.90
6822;DHT22;3449;48.728;8.968;2023-01-24T02:06:20;0.80;99.90
6822;DHT22;3449;48.728;8.968;2023-01-24T02:08:51;0.80;99.90
6822;DHT22;3449;48.728;8.968;2023-01-24T02:11:21;0.80;99.90
6822;DHT22;3449;48.728;8.968;2023-01-24T02:14:09;0.80;99.90
6822;DHT22;3449;48.728;8.968;2023-01-24T02:16:54;0.70;99.90
6822;DHT22;3449;48.728;8.968;2023-01-24T02:19:41;0.70;99.90
6822;DHT22;3449;48.728;8.968;2023-01-24T02:22:15;0.70;99.90
6822;DHT22;3449;48.728;8.968;2023-01-24T02:24:50;0.80;99.90
6822;DHT22;3449;48.728;8.968;2023-01-24T02:27:23;0.80;99.90
6822;DHT22;3449;48.728;8.968;2023-01-24T02:29:49;0.80;99.90
6822;DHT22;3449;48.728;8.968;2023-01-24T02:32:16;0.70;99.90
6822;DHT22;3449;48.728;8.968;2023-01-24T02:34:44;0.70;99.90
6822;DHT22;3449;48.728;8.968;2023-01-24T02:37:13;0.70;99.90
6822;DHT22;3449;48.728;8.968;2023-01-24T02:39:47;0.70;99.90
6822;DHT22;3449;48.728;8.968;2023-01-24T02:42:19;0.70;99.90
6822;DHT22;3449;48.728;8.968;2023-01-24T02:44:52;0.70;99.90
6822;DHT22;3449;48.728;8.968;2023-01-24T02:47:26;0.80;99.90
6822;DHT22;3449;48.728;8.968;2023-01-24T02:49:57;0.70;99.90
6822;DHT22;3449;48.728;8.968;2023-01-24T02:52:25;0.70;99.90
6822;DHT22;3449;48.728;8.968;2023-01-24T02:55:09;0.70;99.90
6822;DHT22;3449;48.728;8.968;2023-01-24T02:57:36;0.80;99.90
6822;DHT22;3449;48.728;8.968;2023-01-24T03:00:24;0.70;99.90
6822;DHT22;3449;48.728;8.968;2023-01-24T03:02:51;0.70;99.90
6822;DHT22;3449;48.728;8.968;2023-01-24T03:05:18;0.70;99.90
6822;DHT22;3449;48.728;8.968;2023-01-24T03:07:45;0.70;99.90
6822;DHT22;3449;48.728;8.968;2023-01-24T03:10:13;0.70;99.90
6822;DHT22;3449;48.728;8.968;2023-01-24T03:12:41;0.60;99.90
6822;DHT22;3449;48.728;8.968;2023-01-24T03:15:27;0.70;99.90
6822;DHT22;3449;48.728;8.968;2023-01-24T03:18:11;0.70;99.90
6822;DHT22;3449;48.728;8.968;2023-01-24T03:20:55;0.70;99.90
6822;DHT22;3449;48.728;8.968;2023-01-24T03:23:40;0.60;99.90
6822;DHT22;3449;48.728;8.968;2023-01-24T03:26:24;0.60;99.90
6822;DHT22;3449;48.728;8.968;2023-01-24T03:29:09;0.60;99.90
6822;DHT22;3449;48.728;8.968;2023-01-24T03:31:55;0.60;99.90
6822;DHT22;3449;48.728;8.968;2023-01-24T03:34:40;0.60;99.90
6822;DHT22;3449;48.728;8.968;2023-01-24T03:37:15;0.60;99.90
6822;DHT22;3449;48.728;8.968;2023-01-24T03:39:42;0.60;99.90
6822;DHT22;3449;48.728;8.968;2023-01-24T03:42:24;0.60;99.90
6822;DHT22;3449;48.728;8.968;2023-01-24T03:44:52;0.60;99.90
6822;DHT22;3449;48.728;8.968;2023-01-24T03:47:20;0.60;99.90
6822;DHT22;3449;48.728;8.968;2023-01-24T03:49:47;0.60;99.90
6822;DHT22;3449;48.728;8.968;2023-01-24T03:52:32;0.70;99.90
6822;DHT22;3449;48.728;8.968;2023-01-24T03:55:00;0.50;99.90
6822;DHT22;3449;48.728;8.968;2023-01-24T03:57:28;0.50;99.90
6822;DHT22;3449;48.728;8.968;2023-01-24T03:59:55;0.50;99.90
6822;DHT22;3449;48.728;8.968;2023-01-24T04:02:23;0.50;99.90
6822;DHT22;3449;48.728;8.968;2023-01-24T04:04:50;0.70;99.90
6822;DHT22;3449;48.728;8.968;2023-01-24T04:07:34;0.50;99.90
6822;DHT22;3449;48.728;8.968;2023-01-24T04:10:01;0.50;99.90
6822;DHT22;3449;48.728;8.968;2023-01-24T04:12:28;0.50;99.90
6822;DHT22;3449;48.728;8.968;2023-01-24T04:14:55;0.50;99.90
6822;DHT22;3449;48.728;8.968;2023-01-24T04:17:23;0.50;99.90
6822;DHT22;3449;48.728;8.968;2023-01-24T04:19:50;0.50;99.90
6822;DHT22;3449;48.728;8.968;2023-01-24T04:22:17;0.60;99.90
6822;DHT22;3449;48.728;8.968;2023-01-24T04:24:45;0.50;99.90
6822;DHT22;3449;48.728;8.968;2023-01-24T04:27:12;0.50;99.90
6822;DHT22;3449;48.728;8.968;2023-01-24T04:29:39;0.50;99.90
6822;DHT22;3449;48.728;8.968;2023-01-24T04:32:06;0.50;99.90
6822;DHT22;3449;48.728;8.968;2023-01-24T04:34:35;0.50;99.90
6822;DHT22;3449;48.728;8.968;2023-01-24T04:37:02;0.50;99.90
6822;DHT22;3449;48.728;8.968;2023-01-24T04:39:29;0.50;99.90
6822;DHT22;3449;48.728;8.968;2023-01-24T04:41:56;0.50;99.90
6822;DHT22;3449;48.728;8.968;2023-01-24T04:44:23;0.60;99.90
6822;DHT22;3449;48.728;8.968;2023-01-24T04:46:50;0.50;99.90
6822;DHT22;3449;48.728;8.968;2023-01-24T04:49:17;0.60;99.90
6822;DHT22;3449;48.728;8.968;2023-01-24T04:51:47;0.60;99.90
6822;DHT22;3449;48.728;8.968;2023-01-24T04:54:13;0.50;99.90
6822;DHT22;3449;48.728;8.968;2023-01-24T04:56:40;0.50;99.90
6822;DHT22;3449;48.728;8.968;2023-01-24T04:59:10;0.50;99.90
6822;DHT22;3449;48.728;8.968;2023-01-24T05:01:37;0.50;99.90
6822;DHT22;3449;48.728;8.968;2023-01-24T05:04:04;0.50;99.90
6822;DHT22;3449;48.728;8.968;2023-01-24T05:06:33;0.50;99.90
6822;DHT22;3449;48.728;8.968;2023-01-24T05:09:01;0.50;99.90
6822;DHT22;3449;48.728;8.968;2023-01-24T05:11:28;0.50;99.90
6822;DHT22;3449;48.728;8.968;2023-01-24T05:13:55;0.50;99.90
6822;DHT22;3449;48.728;8.968;2023-01-24T05:16:22;0.40;99.90
6822;DHT22;3449;48.728;8.968;2023-01-24T05:18:49;0.60;99.90
6822;DHT22;3449;48.728;8.968;2023-01-24T05:21:17;0.50;99.90
6822;DHT22;3449;48.728;8.968;2023-01-24T05:23:48;0.50;99.90
6822;DHT22;3449;48.728;8.968;2023-01-24T05:26:16;0.50;99.90
6822;DHT22;3449;48.728;8.968;2023-01-24T05:28:43;0.50;99.90
6822;DHT22;3449;48.728;8.968;2023-01-24T05:31:10;0.50;99.90
6822;DHT22;3449;48.728;8.968;2023-01-24T05:33:37;0.50;99.90
6822;DHT22;3449;48.728;8.968;2023-01-24T05:36:06;0.50;99.90
6822;DHT22;3449;48.728;8.968;2023-01-24T05:38:33;0.50;99.90
6822;DHT22;3449;48.728;8.968;2023-01-24T05:41:01;0.50;99.90
6822;DHT22;3449;48.728;8.968;2023-01-24T05:43:30;0.50;99.90
6822;DHT22;3449;48.728;8.968;2023-01-24T05:45:58;0.50;99.90
6822;DHT22;3449;48.728;8.968;2023-01-24T05:48:25;0.50;99.90
6822;DHT22;3449;48.728;8.968;2023-01-24T05:50:57;0.50;99.90
6822;DHT22;3449;48.728;8.968;2023-01-24T05:53:25;0.50;99.90
6822;DHT22;3449;48.728;8.968;2023-01-24T05:55:56;0.50;99.90
6822;DHT22;3449;48.728;8.968;2023-01-24T05:58:24;0.50;99.90
6822;DHT22;3449;48.728;8.968;2023-01-24T06:00:52;0.50;99.90
6822;DHT22;3449;48.728;8.968;2023-01-24T06:03:19;0.50;99.90
6822;DHT22;3449;48.728;8.968;2023-01-24T06:05:47;0.50;99.90
6822;DHT22;3449;48.728;8.968;2023-01-24T06:08:14;0.50;99.90
6822;DHT22;3449;48.728;8.968;2023-01-24T06:10:41;0.50;99.90
6822;DHT22;3449;48.728;8.968;2023-01-24T06:13:09;0.50;99.90
6822;DHT22;3449;48.728;8.968;2023-01-24T06:15:36;0.50;99.90
6822;DHT22;3449;48.728;8.968;2023-01-24T06:18:05;0.50;99.90
6822;DHT22;3449;48.728;8.968;2023-01-24T06:20:33;0.50;99.90
6822;DHT22;3449;48.728;8.968;2023-01-24T06:23:03;0.50;99.90
6822;DHT22;3449;48.728;8.968;2023-01-24T06:25:31;0.50;99.90
6822;DHT22;3449;48.728;8.968;2023-01-24T06:27:59;0.50;99.90
6822;DHT22;3449;48.728;8.968;2023-01-24T06:30:26;0.50;99.90
6822;DHT22;3449;48.728;8.968;2023-01-24T06:33:17;0.50;99.90
6822;DHT22;3449;48.728;8.968;2023-01-24T06:36:00;0.50;99.90
6822;DHT22;3449;48.728;8.968;2023-01-24T06:38:29;0.50;99.90
6822;DHT22;3449;48.728;8.968;2023-01-24T06:40:57;0.50;99.90
6822;DHT22;3449;48.728;8.968;2023-01-24T06:43:26;0.50;99.90
6822;DHT22;3449;48.728;8.968;2023-01-24T06:45:53;0.50;99.90
6822;DHT22;3449;48.728;8.968;2023-01-24T06:48:22;0.50;99.90
6822;DHT22;3449;48.728;8.968;2023-01-24T06:50:48;0.50;99.90
6822;DHT22;3449;48.728;8.968;2023-01-24T06:53:15;0.60;99.90
6822;DHT22;3449;48.728;8.968;2023-01-24T06:55:44;0.50;99.90
6822;DHT22;3449;48.728;8.968;2023-01-24T06:58:11;0.40;99.90
6822;DHT22;3449;48.728;8.968;2023-01-24T07:00:38;0.50;99.90
6822;DHT22;3449;48.728;8.968;2023-01-24T07:03:07;0.40;99.90
6822;DHT22;3449;48.728;8.968;2023-01-24T07:05:37;0.40;99.90
6822;DHT22;3449;48.728;8.968;2023-01-24T07:08:05;0.40;99.90
6822;DHT22;3449;48.728;8.968;2023-01-24T07:10:32;0.40;99.90
6822;DHT22;3449;48.728;8.968;2023-01-24T07:12:59;0.60;99.90
6822;DHT22;3449;48.728;8.968;2023-01-24T07:15:26;0.40;99.90
6822;DHT22;3449;48.728;8.968;2023-01-24T07:17:53;0.40;99.90
6822;DHT22;3449;48.728;8.968;2023-01-24T07:20:21;0.40;99.90
6822;DHT22;3449;48.728;8.968;2023-01-24T07:22:50;0.40;99.90
6822;DHT22;3449;48.728;8.968;2023-01-24T07:25:19;0.40;99.90
6822;DHT22;3449;48.728;8.968;2023-01-24T07:27:47;0.40;99.90
6822;DHT22;3449;48.728;8.968;2023-01-24T07:30:15;0.40;99.90
6822;DHT22;3449;48.728;8.968;2023-01-24T07:32:42;0.40;99.90
6822;DHT22;3449;48.728;8.968;2023-01-24T07:35:09;0.40;99.90
6822;DHT22;3449;48.728;8.968;2023-01-24T07:37:36;0.40;99.90
6822;DHT22;3449;48.728;8.968;2023-01-24T07:40:05;0.40;99.90
6822;DHT22;3449;48.728;8.968;2023-01-24T07:42:32;0.40;99.90
6822;DHT22;3449;48.728;8.968;2023-01-24T07:44:59;0.40;99.90
6822;DHT22;3449;48.728;8.968;2023-01-24T07:47:26;0.40;99.90
6822;DHT22;3449;48.728;8.968;2023-01-24T07:49:53;0.50;99.90
6822;DHT22;3449;48.728;8.968;2023-01-24T07:52:20;0.50;99.90
6822;DHT22;3449;48.728;8.968;2023-01-24T07:54:47;0.50;99.90
6822;DHT22;3449;48.728;8.968;2023-01-24T07:57:15;0.50;99.90
6822;DHT22;3449;48.728;8.968;2023-01-24T07:59:42;0.50;99.90
6822;DHT22;3449;48.728;8.968;2023-01-24T08:02:10;0.60;99.90
6822;DHT22;3449;48.728;8.968;2023-01-24T08:04:37;0.50;99.90
6822;DHT22;3449;48.728;8.968;2023-01-24T08:07:04;0.50;99.90
6822;DHT22;3449;48.728;8.968;2023-01-24T08:09:44;0.50;99.90
6822;DHT22;3449;48.728;8.968;2023-01-24T08:12:11;0.50;99.90
6822;DHT22;3449;48.728;8.968;2023-01-24T08:14:40;0.50;99.90
6822;DHT22;3449;48.728;8.968;2023-01-24T08:17:07;0.50;99.90
6822;DHT22;3449;48.728;8.968;2023-01-24T08:19:34;0.50;99.90
6822;DHT22;3449;48.728;8.968;2023-01-24T08:22:02;0.60;99.90
6822;DHT22;3449;48.728;8.968;2023-01-24T08:24:28;0.60;99.90
6822;DHT22;3449;48.728;8.968;2023-01-24T08:26:55;0.60;99.90
6822;DHT22;3449;48.728;8.968;2023-01-24T08:29:22;0.70;99.90
6822;DHT22;3449;48.728;8.968;2023-01-24T08:31:51;0.60;99.90
6822;DHT22;3449;48.728;8.968;2023-01-24T08:34:18;0.70;99.90
6822;DHT22;3449;48.728;8.968;2023-01-24T08:36:44;0.70;99.90
6822;DHT22;3449;48.728;8.968;2023-01-24T08:39:11;0.60;99.90
6822;DHT22;3449;48.728;8.968;2023-01-24T08:41:38;0.60;99.90
6822;DHT22;3449;48.728;8.968;2023-01-24T08:44:05;0.70;99.90
6822;DHT22;3449;48.728;8.968;2023-01-24T08:46:32;0.70;99.90
6822;DHT22;3449;48.728;8.968;2023-01-24T08:49:02;0.70;99.90
6822;DHT22;3449;48.728;8.968;2023-01-24T08:51:29;0.70;99.90
6822;DHT22;3449;48.728;8.968;2023-01-24T08:53:56;0.80;99.90
6822;DHT22;3449;48.728;8.968;2023-01-24T08:56:23;0.80;99.90
6822;DHT22;3449;48.728;8.968;2023-01-24T08:58:50;0.70;99.90
6822;DHT22;3449;48.728;8.968;2023-01-24T09:01:16;0.80;99.90
6822;DHT22;3449;48.728;8.968;2023-01-24T09:03:43;0.80;99.90
6822;DHT22;3449;48.728;8.968;2023-01-24T09:06:12;0.90;99.90
6822;DHT22;3449;48.728;8.968;2023-01-24T09:08:40;0.80;99.90
6822;DHT22;3449;48.728;8.968;2023-01-24T09:11:06;0.90;99.90
6822;DHT22;3449;48.728;8.968;2023-01-24T09:13:33;0.90;99.90
6822;DHT22;3449;48.728;8.968;2023-01-24T09:16:00;0.90;99.90
6822;DHT22;3449;48.728;8.968;2023-01-24T09:18:27;0.90;99.90
6822;DHT22;3449;48.728;8.968;2023-01-24T09:20:54;0.90;99.90
6822;DHT22;3449;48.728;8.968;2023-01-24T09:23:22;0.90;99.90
6822;DHT22;3449;48.728;8.968;2023-01-24T09:25:50;0.90;99.90
6822;DHT22;3449;48.728;8.968;2023-01-24T09:28:17;1.00;99.90
6822;DHT22;3449;48.728;8.968;2023-01-24T09:30:46;1.00;99.90
6822;DHT22;3449;48.728;8.968;2023-01-24T09:33:22;1.00;99.90
6822;DHT22;3449;48.728;8.968;2023-01-24T09:35:53;1.00;99.90
6822;DHT22;3449;48.728;8.968;2023-01-24T09:38:21;1.10;99.90
6822;DHT22;3449;48.728;8.968;2023-01-24T09:40:54;1.00;99.90
6822;DHT22;3449;48.728;8.968;2023-01-24T09:43:46;1.10;99.90
6822;DHT22;3449;48.728;8.968;2023-01-24T09:46:28;1.10;99.90
6822;DHT22;3449;48.728;8.968;2023-01-24T09:49:09;1.10;99.90
6822;DHT22;3449;48.728;8.968;2023-01-24T09:51:41;1.10;99.90
6822;DHT22;3449;48.728;8.968;2023-01-24T09:54:17;1.10;99.90
6822;DHT22;3449;48.728;8.968;2023-01-24T09:56:46;1.10;99.90
6822;DHT22;3449;48.728;8.968;2023-01-24T09:59:19;1.10;99.90
6822;DHT22;3449;48.728;8.968;2023-01-24T10:01:47;1.10;99.90
6822;DHT22;3449;48.728;8.968;2023-01-24T10:04:20;1.10;99.90
6822;DHT22;3449;48.728;8.968;2023-01-24T10:07:24;1.10;99.90
6822;DHT22;3449;48.728;8.968;2023-01-24T10:10:01;1.10;99.90
6822;DHT22;3449;48.728;8.968;2023-01-24T10:12:41;1.10;99.90
6822;DHT22;3449;48.728;8.968;2023-01-24T10:15:30;1.10;99.90
6822;DHT22;3449;48.728;8.968;2023-01-24T10:21:00;1.20;99.90
6822;DHT22;3449;48.728;8.968;2023-01-24T10:23:37;1.20;99.90
6822;DHT22;3449;48.728;8.968;2023-01-24T10:26:14;1.20;99.90
6822;DHT22;3449;48.728;8.968;2023-01-24T10:28:45;1.20;99.90
6822;DHT22;3449;48.728;8.968;2023-01-24T10:31:16;1.20;99.90
6822;DHT22;3449;48.728;8.968;2023-01-24T10:33:46;1.20;99.90
6822;DHT22;3449;48.728;8.968;2023-01-24T10:36:19;1.20;99.90
6822;DHT22;3449;48.728;8.968;2023-01-24T10:38:49;1.20;99.90
6822;DHT22;3449;48.728;8.968;2023-01-24T10:41:22;1.20;99.90
6822;DHT22;3449;48.728;8.968;2023-01-24T10:43:53;1.30;99.90
6822;DHT22;3449;48.728;8.968;2023-01-24T10:46:33;1.30;99.90
6822;DHT22;3449;48.728;8.968;2023-01-24T10:49:08;1.30;99.90
6822;DHT22;3449;48.728;8.968;2023-01-24T10:51:37;1.30;99.90
6822;DHT22;3449;48.728;8.968;2023-01-24T10:54:04;1.40;99.90
6822;DHT22;3449;48.728;8.968;2023-01-24T10:56:46;1.40;99.90
6822;DHT22;3449;48.728;8.968;2023-01-24T10:59:14;1.50;99.90
6822;DHT22;3449;48.728;8.968;2023-01-24T11:01:43;1.50;99.90
6822;DHT22;3449;48.728;8.968;2023-01-24T11:04:19;1.60;99.90
6822;DHT22;3449;48.728;8.968;2023-01-24T11:06:47;1.60;99.90
6822;DHT22;3449;48.728;8.968;2023-01-24T11:09:16;1.60;99.90
6822;DHT22;3449;48.728;8.968;2023-01-24T11:11:49;1.60;99.90
6822;DHT22;3449;48.728;8.968;2023-01-24T11:14:20;1.60;99.90
6822;DHT22;3449;48.728;8.968;2023-01-24T11:16:50;1.70;99.90
6822;DHT22;3449;48.728;8.968;2023-01-24T11:19:26;1.70;99.90
6822;DHT22;3449;48.728;8.968;2023-01-24T11:21:54;1.70;99.90
6822;DHT22;3449;48.728;8.968;2023-01-24T11:24:22;1.70;99.90
6822;DHT22;3449;48.728;8.968;2023-01-24T11:27:02;1.70;99.90
6822;DHT22;3449;48.728;8.968;2023-01-24T11:29:30;1.70;99.90
6822;DHT22;3449;48.728;8.968;2023-01-24T11:32:05;1.70;99.90
6822;DHT22;3449;48.728;8.968;2023-01-24T11:34:44;1.80;99.90
6822;DHT22;3449;48.728;8.968;2023-01-24T11:37:29;1.70;99.90
6822;DHT22;3449;48.728;8.968;2023-01-24T11:40:08;1.70;99.90
6822;DHT22;3449;48.728;8.968;2023-01-24T11:42:46;1.70;99.90
6822;DHT22;3449;48.728;8.968;2023-01-24T11:45:25;1.80;99.90
6822;DHT22;3449;48.728;8.968;2023-01-24T11:48:05;1.70;99.90
6822;DHT22;3449;48.728;8.968;2023-01-24T11:50:38;1.80;99.90
6822;DHT22;3449;48.728;8.968;2023-01-24T11:56:25;1.80;99.90
6822;DHT22;3449;48.728;8.968;2023-01-24T11:59:15;1.80;99.90
6822;DHT22;3449;48.728;8.968;2023-01-24T12:01:53;1.80;99.90
6822;DHT22;3449;48.728;8.968;2023-01-24T12:04:44;1.70;99.90
6822;DHT22;3449;48.728;8.968;2023-01-24T12:07:22;1.80;99.90
6822;DHT22;3449;48.728;8.968;2023-01-24T12:10:02;1.80;99.90
6822;DHT22;3449;48.728;8.968;2023-01-24T12:12:39;1.80;99.90
6822;DHT22;3449;48.728;8.968;2023-01-24T12:15:22;1.90;99.90
6822;DHT22;3449;48.728;8.968;2023-01-24T12:18:01;1.80;99.90
6822;DHT22;3449;48.728;8.968;2023-01-24T12:20:58;1.80;99.90
6822;DHT22;3449;48.728;8.968;2023-01-24T12:23:31;1.80;99.90
6822;DHT22;3449;48.728;8.968;2023-01-24T12:26:02;2.00;99.90
6822;DHT22;3449;48.728;8.968;2023-01-24T12:28:35;1.90;99.90
6822;DHT22;3449;48.728;8.968;2023-01-24T12:31:06;1.90;99.90
6822;DHT22;3449;48.728;8.968;2023-01-24T12:33:42;1.80;99.90
6822;DHT22;3449;48.728;8.968;2023-01-24T12:36:15;1.90;99.90
6822;DHT22;3449;48.728;8.968;2023-01-24T12:38:45;1.90;99.90
6822;DHT22;3449;48.728;8.968;2023-01-24T12:41:19;1.80;99.90
6822;DHT22;3449;48.728;8.968;2023-01-24T12:43:55;1.80;99.90
6822;DHT22;3449;48.728;8.968;2023-01-24T12:46:32;1.90;99.90
6822;DHT22;3449;48.728;8.968;2023-01-24T12:49:06;1.90;99.90
6822;DHT22;3449;48.728;8.968;2023-01-24T12:51:41;1.80;99.90
6822;DHT22;3449;48.728;8.968;2023-01-24T12:54:13;1.80;99.90
6822;DHT22;3449;48.728;8.968;2023-01-24T12:56:48;1.80;99.90
6822;DHT22;3449;48.728;8.968;2023-01-24T12:59:21;1.80;99.90
6822;DHT22;3449;48.728;8.968;2023-01-24T13:02:02;1.80;99.90
6822;DHT22;3449;48.728;8.968;2023-01-24T13:04:38;1.70;99.90
6822;DHT22;3449;48.728;8.968;2023-01-24T13:07:13;1.70;99.90
6822;DHT22;3449;48.728;8.968;2023-01-24T13:09:48;1.80;99.90
6822;DHT22;3449;48.728;8.968;2023-01-24T13:12:21;1.70;99.90
6822;DHT22;3449;48.728;8.968;2023-01-24T13:14:52;1.70;99.90
6822;DHT22;3449;48.728;8.968;2023-01-24T13:17:37;1.70;99.90
6822;DHT22;3449;48.728;8.968;2023-01-24T13:23:04;1.70;99.90
6822;DHT22;3449;48.728;8.968;2023-01-24T13:25:49;1.80;99.90
6822;DHT22;3449;48.728;8.968;2023-01-24T13:28:24;1.80;99.90
6822;DHT22;3449;48.728;8.968;2023-01-24T13:31:02;1.70;99.90
6822;DHT22;3449;48.728;8.968;2023-01-24T13:33:37;1.70;99.90
6822;DHT22;3449;48.728;8.968;2023-01-24T13:36:07;1.70;99.90
6822;DHT22;3449;48.728;8.968;2023-01-24T13:38:39;1.70;99.90
6822;DHT22;3449;48.728;8.968;2023-01-24T13:41:13;1.80;99.90
6822;DHT22;3449;48.728;8.968;2023-01-24T13:43:55;1.70;99.90
6822;DHT22;3449;48.728;8.968;2023-01-24T13:47:04;1.70;99.90
6822;DHT22;3449;48.728;8.968;2023-01-24T13:50:14;1.70;99.90
6822;DHT22;3449;48.728;8.968;2023-01-24T13:52:51;1.70;99.90
6822;DHT22;3449;48.728;8.968;2023-01-24T13:58:29;1.70;99.90
6822;DHT22;3449;48.728;8.968;2023-01-24T14:00:58;1.70;99.90
6822;DHT22;3449;48.728;8.968;2023-01-24T14:03:32;1.70;99.90
6822;DHT22;3449;48.728;8.968;2023-01-24T14:06:10;1.70;99.90
6822;DHT22;3449;48.728;8.968;2023-01-24T14:08:57;1.70;99.90
6822;DHT22;3449;48.728;8.968;2023-01-24T14:11:54;1.70;99.90
6822;DHT22;3449;48.728;8.968;2023-01-24T14:14:36;1.60;99.90
6822;DHT22;3449;48.728;8.968;2023-01-24T14:20:21;1.60;99.90
6822;DHT22;3449;48.728;8.968;2023-01-24T14:22:53;1.60;99.90
6822;DHT22;3449;48.728;8.968;2023-01-24T14:25:32;1.50;99.90
6822;DHT22;3449;48.728;8.968;2023-01-24T14:28:11;1.50;99.90
6822;DHT22;3449;48.728;8.968;2023-01-24T14:30:43;1.50;99.90
6822;DHT22;3449;48.728;8.968;2023-01-24T14:33:28;1.50;99.90
6822;DHT22;3449;48.728;8.968;2023-01-24T14:36:01;1.50;99.90
6822;DHT22;3449;48.728;8.968;2023-01-24T14:38:33;1.40;99.90
6822;DHT22;3449;48.728;8.968;2023-01-24T14:41:00;1.40;99.90
6822;DHT22;3449;48.728;8.968;2023-01-24T14:43:33;1.40;99.90
6822;DHT22;3449;48.728;8.968;2023-01-24T14:46:12;1.40;99.90
6822;DHT22;3449;48.728;8.968;2023-01-24T14:48:39;1.40;99.90
6822;DHT22;3449;48.728;8.968;2023-01-24T14:51:15;1.40;99.90
6822;DHT22;3449;48.728;8.968;2023-01-24T14:53:48;1.40;99.90
6822;DHT22;3449;48.728;8.968;2023-01-24T14:56:15;1.40;99.90
6822;DHT22;3449;48.728;8.968;2023-01-24T14:58:42;1.40;99.90
6822;DHT22;3449;48.728;8.968;2023-01-24T15:01:27;1.40;99.90
6822;DHT22;3449;48.728;8.968;2023-01-24T15:03:54;1.40;99.90
6822;DHT22;3449;48.728;8.968;2023-01-24T15:06:23;1.40;99.90
6822;DHT22;3449;48.728;8.968;2023-01-24T15:08:55;1.40;99.90
6822;DHT22;3449;48.728;8.968;2023-01-24T15:11:26;1.40;99.90
6822;DHT22;3449;48.728;8.968;2023-01-24T15:13:56;1.40;99.90
6822;DHT22;3449;48.728;8.968;2023-01-24T15:16:31;1.40;99.90
6822;DHT22;3449;48.728;8.968;2023-01-24T15:19:03;1.40;99.90
6822;DHT22;3449;48.728;8.968;2023-01-24T15:21:34;1.30;99.90
6822;DHT22;3449;48.728;8.968;2023-01-24T15:24:05;1.40;99.90
6822;DHT22;3449;48.728;8.968;2023-01-24T15:26:38;1.40;99.90
6822;DHT22;3449;48.728;8.968;2023-01-24T15:29:38;1.40;99.90
6822;DHT22;3449;48.728;8.968;2023-01-24T15:32:28;1.40;99.90
6822;DHT22;3449;48.728;8.968;2023-01-24T15:35:30;1.30;99.90
6822;DHT22;3449;48.728;8.968;2023-01-24T15:38:20;1.30;99.90
6822;DHT22;3449;48.728;8.968;2023-01-24T15:40:58;1.20;99.90
6822;DHT22;3449;48.728;8.968;2023-01-24T15:43:36;1.30;99.90
6822;DHT22;3449;48.728;8.968;2023-01-24T15:46:21;1.20;99.90
6822;DHT22;3449;48.728;8.968;2023-01-24T15:49:24;1.20;99.90
6822;DHT22;3449;48.728;8.968;2023-01-24T15:52:18;1.20;99.90
6822;DHT22;3449;48.728;8.968;2023-01-24T15:54:47;1.10;99.90
6822;DHT22;3449;48.728;8.968;2023-01-24T15:57:22;1.10;99.90
6822;DHT22;3449;48.728;8.968;2023-01-24T15:59:52;1.10;99.90
6822;DHT22;3449;48.728;8.968;2023-01-24T16:02:19;1.10;99.90
6822;DHT22;3449;48.728;8.968;2023-01-24T16:04:46;1.10;99.90
6822;DHT22;3449;48.728;8.968;2023-01-24T16:07:14;1.10;99.90
6822;DHT22;3449;48.728;8.968;2023-01-24T16:09:43;1.00;99.90
6822;DHT22;3449;48.728;8.968;2023-01-24T16:12:12;1.00;99.90
6822;DHT22;3449;48.728;8.968;2023-01-24T16:14:46;1.10;99.90
6822;DHT22;3449;48.728;8.968;2023-01-24T16:17:14;1.00;99.90
6822;DHT22;3449;48.728;8.968;2023-01-24T16:19:41;1.10;99.90
6822;DHT22;3449;48.728;8.968;2023-01-24T16:22:08;1.00;99.90
6822;DHT22;3449;48.728;8.968;2023-01-24T16:24:35;1.10;99.90
6822;DHT22;3449;48.728;8.968;2023-01-24T16:27:02;0.90;99.90
6822;DHT22;3449;48.728;8.968;2023-01-24T16:29:31;1.00;99.90
6822;DHT22;3449;48.728;8.968;2023-01-24T16:32:01;0.90;99.90
6822;DHT22;3449;48.728;8.968;2023-01-24T16:34:27;0.90;99.90
6822;DHT22;3449;48.728;8.968;2023-01-24T16:36:54;0.90;99.90
6822;DHT22;3449;48.728;8.968;2023-01-24T16:39:22;0.90;99.90
6822;DHT22;3449;48.728;8.968;2023-01-24T16:41:50;0.90;99.90
6822;DHT22;3449;48.728;8.968;2023-01-24T16:44:17;0.80;99.90
6822;DHT22;3449;48.728;8.968;2023-01-24T16:46:47;0.80;99.90
6822;DHT22;3449;48.728;8.968;2023-01-24T16:49:16;0.90;99.90
6822;DHT22;3449;48.728;8.968;2023-01-24T16:51:44;0.80;99.90
6822;DHT22;3449;48.728;8.968;2023-01-24T16:54:12;0.80;99.90
6822;DHT22;3449;48.728;8.968;2023-01-24T16:56:39;0.80;99.90
6822;DHT22;3449;48.728;8.968;2023-01-24T16:59:08;0.80;99.90
6822;DHT22;3449;48.728;8.968;2023-01-24T17:01:35;0.80;99.90